Country
Station

 

Weather  for  Memphis, Memphis International Airport  -  United States    United States

  
16 °C (61 °F)
    
 
 

Current METAR for Memphis, Memphis International Airport is :

KMEM 192254Z 04006KT 10SM CLR 16/M04 A3028 RMK AO2 SLP254 T01561039

 

This is a report for Memphis, Memphis International Airport - United States.
 
The report was made one hour and 2 minutes ago, at 22:54 UTC .
The wind was blowing at a speed of 3.1 meters per second (6.9 miles per hour) from northeast (040°).
 
The temperature was 16 °C (61 °F), with a dew-point at -4 °C (25 °F).
The atmospheric pressure was 1025 hPa (30.28 inHg).
The relative humidity was 25.0%.
 
The sky was clear.
 
The overall visibility was 16.1 kilometers (10.0 miles).
 

 
 
 
 

Country :   A   B   C   D   E   F   G   H   I   J   K   L   M   N   O   P   Q   R   S   T   U   V   W   Y   Z

 

Site Info  |  Disclaimer  |  Credits  |  Privacy
Contact us  |  Add to favorites
© 2013-2019 METARs - All rights reserved